Silia — WDG2034 — position and weather

sailwx.info

Track history (hours):
 
Tides and Currents Weather Stations Pressure Air Temp Water Temp Dewpoint Dewpoint Depression Visibility Wind Speed Wind Dir Waves Ship Positions

Silia

Owner: greger pacific marine, napa, CA. More information available from US FCC via Universal Licensing System and Coast Guard Vessel Documentation Center.

Last reported at 2016-Sep-30 17:33 UTC. Time now 2016-Sep-30 20:18 UTC.
Position N 37°51' W 122°27'.

Length 17 m; draft 3 m.

Type: Tug. MMSI: 367511460.

Date/timePositionNaut miles runAvg speedWind from/ knotsBaromVisibWave heightAir tempDewpointWater temp
2016-Sep-30 17:33N 37°51' W 122°27'3 2.6
2016-Sep-30 16:32N 37°52' W 122°30'0 0.0
2016-Sep-30 14:33N 37°52' W 122°30'0 0.1
2016-Sep-30 13:34N 37°52' W 122°30'0 0.0
2016-Sep-30 10:34N 37°52' W 122°30'0 0.0
2016-Sep-30 08:33N 37°52' W 122°30'0 0.0
2016-Sep-30 06:34N 37°52' W 122°30'0 0.0
2016-Sep-30 03:34N 37°52' W 122°30'0 0.0
2016-Sep-30 02:33N 37°52' W 122°30'0 0.0
2016-Sep-29 23:33N 37°52' W 122°30'0 0.0
2016-Sep-29 21:33N 37°52' W 122°30'0 0.0
2016-Sep-29 20:33N 37°52' W 122°30'0 0.0
2016-Sep-29 19:33N 37°52' W 122°30'0 0.0
2016-Sep-29 16:32N 37°52' W 122°30'1 1.5
2016-Sep-29 15:33N 37°51' W 122°28'0 0.3
2016-Sep-29 14:33N 37°51' W 122°28'2 1.7
2016-Sep-29 13:33N 37°52' W 122°30'0 0.0
2016-Sep-29 08:33N 37°52' W 122°30'0 0.0
2016-Sep-29 07:33N 37°52' W 122°30'0 0.0
2016-Sep-29 00:33N 37°52' W 122°30'0 0.0
2016-Sep-28 21:33N 37°52' W 122°30'0 0.0
2016-Sep-28 19:34N 37°52' W 122°30'6 2.0
2016-Sep-28 16:33N 37°49' W 122°23'7 6.6
2016-Sep-28 15:33N 37°47' W 122°15'13 4.2
2016-Sep-28 12:33N 37°52' W 122°30'0 0.0
2016-Sep-28 08:33N 37°52' W 122°30'0 0.0
2016-Sep-28 03:34N 37°52' W 122°30'0 0.0
2016-Sep-28 02:33N 37°52' W 122°30'0 0.0
2016-Sep-28 01:34N 37°52' W 122°30'2 1.0
2016-Sep-27 23:33N 37°51' W 122°28'2 0.5
2016-Sep-27 19:33N 37°52' W 122°30'0 0.0
2016-Sep-27 14:33N 37°52' W 122°30'0 0.0
2016-Sep-27 13:34N 37°52' W 122°30'0 0.0
2016-Sep-27 10:34N 37°52' W 122°30'0 0.0
2016-Sep-27 00:33N 37°52' W 122°30'0 0.0
2016-Sep-26 20:33N 37°52' W 122°30'0 0.0
2016-Sep-26 19:33N 37°52' W 122°30'0 0.0
2016-Sep-26 15:33N 37°52' W 122°30'  
2016-Sep-24 01:17N 37°52' W 122°30'0 0.1
2016-Sep-24 00:34N 37°52' W 122°30'0 0.0
2016-Sep-23 19:33N 37°52' W 122°30'1 0.6
2016-Sep-23 17:33N 37°52' W 122°28'1 1.4
2016-Sep-23 16:33N 37°51' W 122°27'3 2.6
2016-Sep-23 15:33N 37°52' W 122°30'0 0.0
2016-Sep-23 13:33N 37°52' W 122°30'0 0.0
2016-Sep-23 09:34N 37°52' W 122°30'0 0.0
2016-Sep-23 06:34N 37°52' W 122°30'0 0.0
2016-Sep-23 04:33N 37°52' W 122°30'0 0.0
2016-Sep-23 03:33N 37°52' W 122°30'0 0.0
2016-Sep-23 02:33N 37°52' W 122°30'0 0.0
2016-Sep-23 01:33N 37°52' W 122°30'0 0.0
2016-Sep-23 00:33N 37°52' W 122°30'0 0.0
2016-Sep-22 23:33N 37°52' W 122°30'0 0.0
2016-Sep-22 20:33N 37°52' W 122°30'0 0.0
2016-Sep-22 00:33N 37°52' W 122°30'1 0.5
2016-Sep-21 23:33N 37°52' W 122°29'1 1.0
2016-Sep-21 22:33N 37°51' W 122°28'2 0.5
2016-Sep-21 19:33N 37°52' W 122°30'1 0.3
2016-Sep-21 16:33N 37°52' W 122°29'1 0.0
2016-Sep-20 17:33N 37°52' W 122°30'  
Track history (hours):
 
Tides and Currents Weather Stations Pressure Air Temp Water Temp Dewpoint Dewpoint Depression Visibility Wind Speed Wind Dir Waves Ship Positions

Silia

Owner: greger pacific marine, napa, CA. More information available from US FCC via Universal Licensing System and Coast Guard Vessel Documentation Center.

Last reported at 2016-Sep-30 17:33 UTC. Time now 2016-Sep-30 20:18 UTC.
Position N 37°51' W 122°27'.

Length 17 m; draft 3 m.

Type: Tug. MMSI: 367511460.

Date/timePositionNaut miles runAvg speedWind from/ knotsBaromVisibWave heightAir tempDewpointWater temp
2016-Sep-30 17:33N 37°51' W 122°27'3 2.6
2016-Sep-30 16:32N 37°52' W 122°30'0 0.0
2016-Sep-30 14:33N 37°52' W 122°30'0 0.1
2016-Sep-30 13:34N 37°52' W 122°30'0 0.0
2016-Sep-30 10:34N 37°52' W 122°30'0 0.0
2016-Sep-30 08:33N 37°52' W 122°30'0 0.0
2016-Sep-30 06:34N 37°52' W 122°30'0 0.0
2016-Sep-30 03:34N 37°52' W 122°30'0 0.0
2016-Sep-30 02:33N 37°52' W 122°30'0 0.0
2016-Sep-29 23:33N 37°52' W 122°30'0 0.0
2016-Sep-29 21:33N 37°52' W 122°30'0 0.0
2016-Sep-29 20:33N 37°52' W 122°30'0 0.0
2016-Sep-29 19:33N 37°52' W 122°30'0 0.0
2016-Sep-29 16:32N 37°52' W 122°30'1 1.5
2016-Sep-29 15:33N 37°51' W 122°28'0 0.3
2016-Sep-29 14:33N 37°51' W 122°28'2 1.7
2016-Sep-29 13:33N 37°52' W 122°30'0 0.0
2016-Sep-29 08:33N 37°52' W 122°30'0 0.0
2016-Sep-29 07:33N 37°52' W 122°30'0 0.0
2016-Sep-29 00:33N 37°52' W 122°30'0 0.0
2016-Sep-28 21:33N 37°52' W 122°30'0 0.0
2016-Sep-28 19:34N 37°52' W 122°30'6 2.0
2016-Sep-28 16:33N 37°49' W 122°23'7 6.6
2016-Sep-28 15:33N 37°47' W 122°15'13 4.2
2016-Sep-28 12:33N 37°52' W 122°30'0 0.0
2016-Sep-28 08:33N 37°52' W 122°30'0 0.0
2016-Sep-28 03:34N 37°52' W 122°30'0 0.0
2016-Sep-28 02:33N 37°52' W 122°30'0 0.0
2016-Sep-28 01:34N 37°52' W 122°30'2 1.0
2016-Sep-27 23:33N 37°51' W 122°28'2 0.5
2016-Sep-27 19:33N 37°52' W 122°30'0 0.0
2016-Sep-27 14:33N 37°52' W 122°30'0 0.0
2016-Sep-27 13:34N 37°52' W 122°30'0 0.0
2016-Sep-27 10:34N 37°52' W 122°30'0 0.0
2016-Sep-27 00:33N 37°52' W 122°30'0 0.0
2016-Sep-26 20:33N 37°52' W 122°30'0 0.0
2016-Sep-26 19:33N 37°52' W 122°30'0 0.0
2016-Sep-26 15:33N 37°52' W 122°30'  
2016-Sep-24 01:17N 37°52' W 122°30'0 0.1
2016-Sep-24 00:34N 37°52' W 122°30'0 0.0
2016-Sep-23 19:33N 37°52' W 122°30'1 0.6
2016-Sep-23 17:33N 37°52' W 122°28'1 1.4
2016-Sep-23 16:33N 37°51' W 122°27'3 2.6
2016-Sep-23 15:33N 37°52' W 122°30'0 0.0
2016-Sep-23 13:33N 37°52' W 122°30'0 0.0
2016-Sep-23 09:34N 37°52' W 122°30'0 0.0
2016-Sep-23 06:34N 37°52' W 122°30'0 0.0
2016-Sep-23 04:33N 37°52' W 122°30'0 0.0
2016-Sep-23 03:33N 37°52' W 122°30'0 0.0
2016-Sep-23 02:33N 37°52' W 122°30'0 0.0
2016-Sep-23 01:33N 37°52' W 122°30'0 0.0
2016-Sep-23 00:33N 37°52' W 122°30'0 0.0
2016-Sep-22 23:33N 37°52' W 122°30'0 0.0
2016-Sep-22 20:33N 37°52' W 122°30'0 0.0
2016-Sep-22 00:33N 37°52' W 122°30'1 0.5
2016-Sep-21 23:33N 37°52' W 122°29'1 1.0
2016-Sep-21 22:33N 37°51' W 122°28'2 0.5
2016-Sep-21 19:33N 37°52' W 122°30'1 0.3
2016-Sep-21 16:33N 37°52' W 122°29'1 0.0
2016-Sep-20 17:33N 37°52' W 122°30'  

Dump ship's entire track history